Valkenburg, Netherlands
Current Conditions -  °F | °C
As of 8:55 PM on Friday 19 Dec 2014 (Local Time) from EHBK Reporting Station
Clear Clear  
Wind Chill: 39°   Ceiling: Unl
Heat Index: 43°   Visibility: 6mi
Dew Point: 37°   Wind: 7mph
Humidity: 81%   Direction: 230°SW
Pressure: 30.09"   Gusts: NA
Location:  50.86°N, 5.83°E
Report Text: EHBK 191955Z AUTO 23006KT 190V280 9999 NCD 06/03 Q1019 NOSIG
Loading
Personal Weather Stations






























Interactive Weather Map New forecast layout! Learn more

10-Day Weather Forecast

Advertisements
Track Severe Weather on mobile